sensor_id;sensor_type;location;lat;lon;timestamp;temperature;humidity
33803;DHT22;20110;53.120;5.786;2022-08-18T00:00:33;16.10;99.90
33803;DHT22;20110;53.120;5.786;2022-08-18T00:03:05;16.00;99.90
33803;DHT22;20110;53.120;5.786;2022-08-18T00:05:32;16.00;99.90
33803;DHT22;20110;53.120;5.786;2022-08-18T00:07:59;16.00;99.90
33803;DHT22;20110;53.120;5.786;2022-08-18T00:10:26;15.90;99.90
33803;DHT22;20110;53.120;5.786;2022-08-18T00:12:52;15.90;99.90
33803;DHT22;20110;53.120;5.786;2022-08-18T00:15:18;15.90;99.90
33803;DHT22;20110;53.120;5.786;2022-08-18T00:17:44;15.80;99.90
33803;DHT22;20110;53.120;5.786;2022-08-18T00:20:16;15.80;99.90
33803;DHT22;20110;53.120;5.786;2022-08-18T00:22:45;15.80;99.90
33803;DHT22;20110;53.120;5.786;2022-08-18T00:25:13;15.90;99.90
33803;DHT22;20110;53.120;5.786;2022-08-18T00:27:41;15.90;99.90
33803;DHT22;20110;53.120;5.786;2022-08-18T00:30:11;15.80;99.90
33803;DHT22;20110;53.120;5.786;2022-08-18T00:32:42;15.90;99.90
33803;DHT22;20110;53.120;5.786;2022-08-18T00:35:12;16.00;99.90
33803;DHT22;20110;53.120;5.786;2022-08-18T00:37:41;16.00;99.90
33803;DHT22;20110;53.120;5.786;2022-08-18T00:40:10;16.10;99.90
33803;DHT22;20110;53.120;5.786;2022-08-18T00:42:43;16.10;99.90
33803;DHT22;20110;53.120;5.786;2022-08-18T00:45:16;16.20;99.90
33803;DHT22;20110;53.120;5.786;2022-08-18T00:47:45;16.20;99.90
33803;DHT22;20110;53.120;5.786;2022-08-18T00:50:21;16.30;99.90
33803;DHT22;20110;53.120;5.786;2022-08-18T00:52:56;16.30;99.90
33803;DHT22;20110;53.120;5.786;2022-08-18T00:55:28;16.30;99.90
33803;DHT22;20110;53.120;5.786;2022-08-18T00:58:07;16.30;99.90
33803;DHT22;20110;53.120;5.786;2022-08-18T01:00:37;16.30;99.90
33803;DHT22;20110;53.120;5.786;2022-08-18T01:03:07;16.30;99.90
33803;DHT22;20110;53.120;5.786;2022-08-18T01:06:12;16.20;99.90
33803;DHT22;20110;53.120;5.786;2022-08-18T01:08:45;16.20;99.90
33803;DHT22;20110;53.120;5.786;2022-08-18T01:11:12;16.20;99.90
33803;DHT22;20110;53.120;5.786;2022-08-18T01:13:39;16.20;99.90
33803;DHT22;20110;53.120;5.786;2022-08-18T01:16:07;16.20;99.90
33803;DHT22;20110;53.120;5.786;2022-08-18T01:18:52;16.20;99.90
33803;DHT22;20110;53.120;5.786;2022-08-18T01:21:42;16.20;99.90
33803;DHT22;20110;53.120;5.786;2022-08-18T01:24:30;16.10;99.90
33803;DHT22;20110;53.120;5.786;2022-08-18T01:27:18;16.10;99.90
33803;DHT22;20110;53.120;5.786;2022-08-18T01:29:47;16.10;99.90
33803;DHT22;20110;53.120;5.786;2022-08-18T01:32:20;16.10;99.90
33803;DHT22;20110;53.120;5.786;2022-08-18T01:34:49;16.10;99.90
33803;DHT22;20110;53.120;5.786;2022-08-18T01:37:18;16.00;99.90
33803;DHT22;20110;53.120;5.786;2022-08-18T01:39:48;16.10;99.90
33803;DHT22;20110;53.120;5.786;2022-08-18T01:42:15;16.20;99.90
33803;DHT22;20110;53.120;5.786;2022-08-18T01:44:46;16.20;99.90
33803;DHT22;20110;53.120;5.786;2022-08-18T01:47:15;16.20;99.90
33803;DHT22;20110;53.120;5.786;2022-08-18T01:49:43;16.20;99.90
33803;DHT22;20110;53.120;5.786;2022-08-18T01:52:13;16.30;99.90
33803;DHT22;20110;53.120;5.786;2022-08-18T01:54:42;16.20;99.90
33803;DHT22;20110;53.120;5.786;2022-08-18T01:57:08;16.30;99.90
33803;DHT22;20110;53.120;5.786;2022-08-18T01:59:37;16.30;99.90
33803;DHT22;20110;53.120;5.786;2022-08-18T02:02:04;16.20;99.90
33803;DHT22;20110;53.120;5.786;2022-08-18T02:04:32;16.20;99.90
33803;DHT22;20110;53.120;5.786;2022-08-18T02:06:59;16.20;99.90
33803;DHT22;20110;53.120;5.786;2022-08-18T02:09:29;16.10;99.90
33803;DHT22;20110;53.120;5.786;2022-08-18T02:11:55;16.10;99.90
33803;DHT22;20110;53.120;5.786;2022-08-18T02:14:22;16.00;99.90
33803;DHT22;20110;53.120;5.786;2022-08-18T02:16:48;16.00;99.90
33803;DHT22;20110;53.120;5.786;2022-08-18T02:19:14;15.90;99.90
33803;DHT22;20110;53.120;5.786;2022-08-18T02:21:39;15.80;99.90
33803;DHT22;20110;53.120;5.786;2022-08-18T02:24:05;15.80;99.90
33803;DHT22;20110;53.120;5.786;2022-08-18T02:26:31;15.80;99.90
33803;DHT22;20110;53.120;5.786;2022-08-18T02:28:57;15.70;99.90
33803;DHT22;20110;53.120;5.786;2022-08-18T02:31:24;15.80;99.90
33803;DHT22;20110;53.120;5.786;2022-08-18T02:33:51;15.90;99.90
33803;DHT22;20110;53.120;5.786;2022-08-18T02:36:17;15.80;99.90
33803;DHT22;20110;53.120;5.786;2022-08-18T02:38:43;16.00;99.90
33803;DHT22;20110;53.120;5.786;2022-08-18T02:41:11;16.00;99.90
33803;DHT22;20110;53.120;5.786;2022-08-18T02:43:41;16.10;99.90
33803;DHT22;20110;53.120;5.786;2022-08-18T02:46:08;16.00;99.90
33803;DHT22;20110;53.120;5.786;2022-08-18T02:48:34;16.20;99.90
33803;DHT22;20110;53.120;5.786;2022-08-18T02:51:05;16.10;99.90
33803;DHT22;20110;53.120;5.786;2022-08-18T02:53:34;16.20;99.90
33803;DHT22;20110;53.120;5.786;2022-08-18T02:56:14;16.20;99.90
33803;DHT22;20110;53.120;5.786;2022-08-18T02:58:49;16.20;99.90
33803;DHT22;20110;53.120;5.786;2022-08-18T03:01:24;16.30;99.90
33803;DHT22;20110;53.120;5.786;2022-08-18T03:03:52;16.30;99.90
33803;DHT22;20110;53.120;5.786;2022-08-18T03:06:19;16.30;99.90
33803;DHT22;20110;53.120;5.786;2022-08-18T03:08:46;16.30;99.90
33803;DHT22;20110;53.120;5.786;2022-08-18T03:11:15;16.30;99.90
33803;DHT22;20110;53.120;5.786;2022-08-18T03:13:42;16.40;99.90
33803;DHT22;20110;53.120;5.786;2022-08-18T03:16:09;16.30;99.90
33803;DHT22;20110;53.120;5.786;2022-08-18T03:18:35;16.40;99.90
33803;DHT22;20110;53.120;5.786;2022-08-18T03:21:21;16.40;99.90
33803;DHT22;20110;53.120;5.786;2022-08-18T03:23:50;16.40;99.90
33803;DHT22;20110;53.120;5.786;2022-08-18T03:26:19;16.40;99.90
33803;DHT22;20110;53.120;5.786;2022-08-18T03:28:48;16.40;99.90
33803;DHT22;20110;53.120;5.786;2022-08-18T03:31:17;16.40;99.90
33803;DHT22;20110;53.120;5.786;2022-08-18T03:33:45;16.40;99.90
33803;DHT22;20110;53.120;5.786;2022-08-18T03:36:15;16.30;99.90
33803;DHT22;20110;53.120;5.786;2022-08-18T03:38:49;16.30;99.90
33803;DHT22;20110;53.120;5.786;2022-08-18T03:41:21;16.40;99.90
33803;DHT22;20110;53.120;5.786;2022-08-18T03:43:48;16.40;99.90
33803;DHT22;20110;53.120;5.786;2022-08-18T03:46:16;16.40;99.90
33803;DHT22;20110;53.120;5.786;2022-08-18T03:48:44;16.40;99.90
33803;DHT22;20110;53.120;5.786;2022-08-18T03:51:21;16.40;99.90
33803;DHT22;20110;53.120;5.786;2022-08-18T03:53:51;16.40;99.90
33803;DHT22;20110;53.120;5.786;2022-08-18T03:56:21;16.30;99.90
33803;DHT22;20110;53.120;5.786;2022-08-18T03:58:51;16.30;99.90
33803;DHT22;20110;53.120;5.786;2022-08-18T04:01:25;16.40;99.90
33803;DHT22;20110;53.120;5.786;2022-08-18T04:03:56;16.40;99.90
33803;DHT22;20110;53.120;5.786;2022-08-18T04:06:29;16.40;99.90
33803;DHT22;20110;53.120;5.786;2022-08-18T04:09:05;16.40;99.90
33803;DHT22;20110;53.120;5.786;2022-08-18T04:11:34;16.40;99.90
33803;DHT22;20110;53.120;5.786;2022-08-18T04:14:01;16.50;99.90
33803;DHT22;20110;53.120;5.786;2022-08-18T04:16:29;16.50;99.90
33803;DHT22;20110;53.120;5.786;2022-08-18T04:18:59;16.70;99.90
33803;DHT22;20110;53.120;5.786;2022-08-18T04:21:32;16.60;99.90
33803;DHT22;20110;53.120;5.786;2022-08-18T04:24:02;16.60;99.90
33803;DHT22;20110;53.120;5.786;2022-08-18T04:26:36;16.60;99.90
33803;DHT22;20110;53.120;5.786;2022-08-18T04:29:05;16.60;99.90
33803;DHT22;20110;53.120;5.786;2022-08-18T04:31:32;16.60;99.90
33803;DHT22;20110;53.120;5.786;2022-08-18T04:33:59;16.50;99.90
33803;DHT22;20110;53.120;5.786;2022-08-18T04:36:27;16.50;99.90
33803;DHT22;20110;53.120;5.786;2022-08-18T04:38:54;16.50;99.90
33803;DHT22;20110;53.120;5.786;2022-08-18T04:41:20;16.50;99.90
33803;DHT22;20110;53.120;5.786;2022-08-18T04:43:53;16.60;99.90
33803;DHT22;20110;53.120;5.786;2022-08-18T04:46:23;16.60;99.90
33803;DHT22;20110;53.120;5.786;2022-08-18T04:48:49;16.70;99.90
33803;DHT22;20110;53.120;5.786;2022-08-18T04:51:18;16.70;99.90
33803;DHT22;20110;53.120;5.786;2022-08-18T04:53:45;16.80;99.90
33803;DHT22;20110;53.120;5.786;2022-08-18T04:56:20;16.80;99.90
33803;DHT22;20110;53.120;5.786;2022-08-18T04:58:54;16.80;99.90
33803;DHT22;20110;53.120;5.786;2022-08-18T05:01:24;16.90;99.90
33803;DHT22;20110;53.120;5.786;2022-08-18T05:03:55;16.80;99.90
33803;DHT22;20110;53.120;5.786;2022-08-18T05:06:22;16.90;99.90
33803;DHT22;20110;53.120;5.786;2022-08-18T05:08:51;16.90;99.90
33803;DHT22;20110;53.120;5.786;2022-08-18T05:11:19;16.90;99.90
33803;DHT22;20110;53.120;5.786;2022-08-18T05:13:47;16.90;99.90
33803;DHT22;20110;53.120;5.786;2022-08-18T05:16:14;16.90;99.90
33803;DHT22;20110;53.120;5.786;2022-08-18T05:18:40;17.00;99.90
33803;DHT22;20110;53.120;5.786;2022-08-18T05:21:07;17.00;99.90
33803;DHT22;20110;53.120;5.786;2022-08-18T05:23:43;17.00;99.90
33803;DHT22;20110;53.120;5.786;2022-08-18T05:26:10;17.00;99.90
33803;DHT22;20110;53.120;5.786;2022-08-18T05:28:39;17.10;99.90
33803;DHT22;20110;53.120;5.786;2022-08-18T05:31:18;17.10;99.90
33803;DHT22;20110;53.120;5.786;2022-08-18T05:33:47;17.10;99.90
33803;DHT22;20110;53.120;5.786;2022-08-18T05:44:50;17.20;99.90
33803;DHT22;20110;53.120;5.786;2022-08-18T05:47:36;17.20;99.90
33803;DHT22;20110;53.120;5.786;2022-08-18T05:50:15;17.20;99.90
33803;DHT22;20110;53.120;5.786;2022-08-18T05:52:51;17.30;99.90
33803;DHT22;20110;53.120;5.786;2022-08-18T05:55:27;17.30;99.90
33803;DHT22;20110;53.120;5.786;2022-08-18T05:58:27;17.30;99.90
33803;DHT22;20110;53.120;5.786;2022-08-18T06:01:01;17.20;99.90
33803;DHT22;20110;53.120;5.786;2022-08-18T06:03:34;17.30;99.90
33803;DHT22;20110;53.120;5.786;2022-08-18T06:06:16;17.20;99.90
33803;DHT22;20110;53.120;5.786;2022-08-18T06:09:16;17.10;99.90
33803;DHT22;20110;53.120;5.786;2022-08-18T06:11:47;17.00;99.90
33803;DHT22;20110;53.120;5.786;2022-08-18T06:14:13;17.00;99.90
33803;DHT22;20110;53.120;5.786;2022-08-18T06:19:41;17.00;99.90
33803;DHT22;20110;53.120;5.786;2022-08-18T06:22:19;17.00;99.90
33803;DHT22;20110;53.120;5.786;2022-08-18T06:39:28;17.20;99.90
33803;DHT22;20110;53.120;5.786;2022-08-18T06:41:59;17.30;99.90
33803;DHT22;20110;53.120;5.786;2022-08-18T06:44:46;17.20;99.90
33803;DHT22;20110;53.120;5.786;2022-08-18T06:50:51;17.20;99.90
33803;DHT22;20110;53.120;5.786;2022-08-18T06:53:20;17.30;99.90
33803;DHT22;20110;53.120;5.786;2022-08-18T06:55:49;17.30;99.90
33803;DHT22;20110;53.120;5.786;2022-08-18T07:01:04;17.40;99.90
33803;DHT22;20110;53.120;5.786;2022-08-18T07:06:08;17.40;99.90
33803;DHT22;20110;53.120;5.786;2022-08-18T07:08:49;17.40;99.90
33803;DHT22;20110;53.120;5.786;2022-08-18T07:11:33;17.40;99.90
33803;DHT22;20110;53.120;5.786;2022-08-18T07:14:12;17.30;99.90
33803;DHT22;20110;53.120;5.786;2022-08-18T07:16:46;17.10;99.90
33803;DHT22;20110;53.120;5.786;2022-08-18T07:19:15;17.20;99.90
33803;DHT22;20110;53.120;5.786;2022-08-18T07:21:46;17.30;99.90
33803;DHT22;20110;53.120;5.786;2022-08-18T07:24:34;17.30;99.90
33803;DHT22;20110;53.120;5.786;2022-08-18T07:27:17;17.40;99.90
33803;DHT22;20110;53.120;5.786;2022-08-18T07:30:07;17.50;99.90
33803;DHT22;20110;53.120;5.786;2022-08-18T07:33:28;17.60;99.90
33803;DHT22;20110;53.120;5.786;2022-08-18T07:35:53;17.70;99.90
33803;DHT22;20110;53.120;5.786;2022-08-18T07:38:37;17.90;99.90
33803;DHT22;20110;53.120;5.786;2022-08-18T07:41:24;18.10;99.90
33803;DHT22;20110;53.120;5.786;2022-08-18T07:44:19;18.10;99.90
33803;DHT22;20110;53.120;5.786;2022-08-18T07:47:02;18.20;99.90
33803;DHT22;20110;53.120;5.786;2022-08-18T07:49:33;18.30;99.90
33803;DHT22;20110;53.120;5.786;2022-08-18T07:52:31;18.30;99.90
33803;DHT22;20110;53.120;5.786;2022-08-18T07:55:26;18.40;99.90
33803;DHT22;20110;53.120;5.786;2022-08-18T08:01:00;18.50;99.90
33803;DHT22;20110;53.120;5.786;2022-08-18T08:03:54;18.60;99.90
33803;DHT22;20110;53.120;5.786;2022-08-18T08:06:48;18.90;99.90
33803;DHT22;20110;53.120;5.786;2022-08-18T08:12:52;19.50;99.90
33803;DHT22;20110;53.120;5.786;2022-08-18T08:18:10;19.90;99.90
33803;DHT22;20110;53.120;5.786;2022-08-18T08:20:57;19.90;99.90
33803;DHT22;20110;53.120;5.786;2022-08-18T08:23:37;20.00;99.90
33803;DHT22;20110;53.120;5.786;2022-08-18T08:32:34;19.90;99.90
33803;DHT22;20110;53.120;5.786;2022-08-18T08:35:13;19.60;99.90
33803;DHT22;20110;53.120;5.786;2022-08-18T08:37:57;19.50;99.90
33803;DHT22;20110;53.120;5.786;2022-08-18T08:40:56;19.40;99.90
33803;DHT22;20110;53.120;5.786;2022-08-18T08:43:39;19.20;99.90
33803;DHT22;20110;53.120;5.786;2022-08-18T08:46:16;19.20;99.90
33803;DHT22;20110;53.120;5.786;2022-08-18T08:48:58;19.30;99.90
33803;DHT22;20110;53.120;5.786;2022-08-18T08:51:42;19.20;99.90
33803;DHT22;20110;53.120;5.786;2022-08-18T08:54:18;19.30;99.90
33803;DHT22;20110;53.120;5.786;2022-08-18T08:56:49;19.30;99.90
33803;DHT22;20110;53.120;5.786;2022-08-18T08:59:20;19.30;99.90
33803;DHT22;20110;53.120;5.786;2022-08-18T09:19:15;19.70;99.90
33803;DHT22;20110;53.120;5.786;2022-08-18T09:22:58;20.10;99.90
33803;DHT22;20110;53.120;5.786;2022-08-18T09:24:56;20.20;99.90
33803;DHT22;20110;53.120;5.786;2022-08-18T09:27:44;20.50;99.90
33803;DHT22;20110;53.120;5.786;2022-08-18T09:38:50;20.50;99.90
33803;DHT22;20110;53.120;5.786;2022-08-18T09:41:47;20.40;99.90
33803;DHT22;20110;53.120;5.786;2022-08-18T09:52:59;20.90;99.90
33803;DHT22;20110;53.120;5.786;2022-08-18T09:55:56;21.10;99.90
33803;DHT22;20110;53.120;5.786;2022-08-18T10:06:44;22.20;99.90
33803;DHT22;20110;53.120;5.786;2022-08-18T10:17:55;22.30;99.90
33803;DHT22;20110;53.120;5.786;2022-08-18T10:24:38;22.20;99.90
33803;DHT22;20110;53.120;5.786;2022-08-18T10:34:40;22.10;99.90
33803;DHT22;20110;53.120;5.786;2022-08-18T10:40:23;22.00;99.90
33803;DHT22;20110;53.120;5.786;2022-08-18T10:45:51;21.60;99.90
33803;DHT22;20110;53.120;5.786;2022-08-18T10:48:25;21.40;99.90
33803;DHT22;20110;53.120;5.786;2022-08-18T10:51:17;22.00;99.90
33803;DHT22;20110;53.120;5.786;2022-08-18T10:54:11;22.60;99.90
33803;DHT22;20110;53.120;5.786;2022-08-18T10:56:51;22.50;99.90
33803;DHT22;20110;53.120;5.786;2022-08-18T11:02:50;23.70;99.90
33803;DHT22;20110;53.120;5.786;2022-08-18T11:05:34;24.00;99.90
33803;DHT22;20110;53.120;5.786;2022-08-18T11:08:03;24.70;99.90
33803;DHT22;20110;53.120;5.786;2022-08-18T11:18:53;24.20;99.90
33803;DHT22;20110;53.120;5.786;2022-08-18T11:21:44;23.90;99.90
33803;DHT22;20110;53.120;5.786;2022-08-18T11:24:25;24.20;99.90
33803;DHT22;20110;53.120;5.786;2022-08-18T11:26:58;24.50;99.90
33803;DHT22;20110;53.120;5.786;2022-08-18T11:29:38;24.60;99.90
33803;DHT22;20110;53.120;5.786;2022-08-18T11:32:36;25.10;99.90
33803;DHT22;20110;53.120;5.786;2022-08-18T11:35:14;25.30;99.90
33803;DHT22;20110;53.120;5.786;2022-08-18T11:38:02;24.80;99.90
33803;DHT22;20110;53.120;5.786;2022-08-18T11:40:42;24.10;99.90
33803;DHT22;20110;53.120;5.786;2022-08-18T11:43:23;24.00;99.90
33803;DHT22;20110;53.120;5.786;2022-08-18T11:46:00;24.10;99.90
33803;DHT22;20110;53.120;5.786;2022-08-18T11:48:43;24.10;99.90
33803;DHT22;20110;53.120;5.786;2022-08-18T11:51:21;24.10;99.90
33803;DHT22;20110;53.120;5.786;2022-08-18T12:01:50;23.20;99.90
33803;DHT22;20110;53.120;5.786;2022-08-18T12:04:39;23.30;99.90
33803;DHT22;20110;53.120;5.786;2022-08-18T12:07:14;23.40;99.90
33803;DHT22;20110;53.120;5.786;2022-08-18T12:10:09;23.30;99.90
33803;DHT22;20110;53.120;5.786;2022-08-18T12:12:51;23.40;99.90
33803;DHT22;20110;53.120;5.786;2022-08-18T12:15:30;23.40;99.90
33803;DHT22;20110;53.120;5.786;2022-08-18T12:17:57;23.60;99.90
33803;DHT22;20110;53.120;5.786;2022-08-18T12:20:24;24.40;99.90
33803;DHT22;20110;53.120;5.786;2022-08-18T12:22:55;24.80;99.90
33803;DHT22;20110;53.120;5.786;2022-08-18T12:25:21;24.90;99.90
33803;DHT22;20110;53.120;5.786;2022-08-18T12:27:47;25.10;99.90
33803;DHT22;20110;53.120;5.786;2022-08-18T12:30:13;25.30;99.90
33803;DHT22;20110;53.120;5.786;2022-08-18T12:32:40;25.60;99.90
33803;DHT22;20110;53.120;5.786;2022-08-18T12:35:08;25.90;99.90
33803;DHT22;20110;53.120;5.786;2022-08-18T12:37:42;25.90;99.90
33803;DHT22;20110;53.120;5.786;2022-08-18T12:40:10;25.90;99.90
33803;DHT22;20110;53.120;5.786;2022-08-18T12:42:36;26.10;99.90
33803;DHT22;20110;53.120;5.786;2022-08-18T12:45:02;26.40;99.90
33803;DHT22;20110;53.120;5.786;2022-08-18T12:47:29;27.00;99.90
33803;DHT22;20110;53.120;5.786;2022-08-18T12:49:55;26.50;99.90
33803;DHT22;20110;53.120;5.786;2022-08-18T12:52:21;25.60;99.90
33803;DHT22;20110;53.120;5.786;2022-08-18T12:54:47;25.00;99.90
33803;DHT22;20110;53.120;5.786;2022-08-18T12:57:20;24.60;99.90
33803;DHT22;20110;53.120;5.786;2022-08-18T12:59:48;24.80;99.90
33803;DHT22;20110;53.120;5.786;2022-08-18T13:02:14;25.50;99.90
33803;DHT22;20110;53.120;5.786;2022-08-18T13:04:41;25.40;99.90
33803;DHT22;20110;53.120;5.786;2022-08-18T13:07:10;25.10;99.90
33803;DHT22;20110;53.120;5.786;2022-08-18T13:09:38;24.70;99.90
33803;DHT22;20110;53.120;5.786;2022-08-18T13:12:04;24.40;99.90
33803;DHT22;20110;53.120;5.786;2022-08-18T13:14:31;24.10;99.90
33803;DHT22;20110;53.120;5.786;2022-08-18T13:16:58;24.00;99.90
33803;DHT22;20110;53.120;5.786;2022-08-18T13:19:23;24.00;99.90
33803;DHT22;20110;53.120;5.786;2022-08-18T13:21:50;24.10;99.90
33803;DHT22;20110;53.120;5.786;2022-08-18T13:24:16;24.40;99.90
33803;DHT22;20110;53.120;5.786;2022-08-18T13:26:44;24.40;99.90
33803;DHT22;20110;53.120;5.786;2022-08-18T13:29:13;24.50;99.90
33803;DHT22;20110;53.120;5.786;2022-08-18T13:31:41;24.50;99.90
33803;DHT22;20110;53.120;5.786;2022-08-18T13:34:07;24.10;99.90
33803;DHT22;20110;53.120;5.786;2022-08-18T13:36:33;24.10;99.90
33803;DHT22;20110;53.120;5.786;2022-08-18T13:39:17;24.20;99.90
33803;DHT22;20110;53.120;5.786;2022-08-18T13:41:45;24.20;99.90
33803;DHT22;20110;53.120;5.786;2022-08-18T13:44:13;24.40;99.90
33803;DHT22;20110;53.120;5.786;2022-08-18T13:46:43;24.40;99.90
33803;DHT22;20110;53.120;5.786;2022-08-18T13:49:20;24.40;99.90
33803;DHT22;20110;53.120;5.786;2022-08-18T13:51:50;24.40;99.90
33803;DHT22;20110;53.120;5.786;2022-08-18T13:54:26;24.40;99.90
33803;DHT22;20110;53.120;5.786;2022-08-18T13:56:54;24.10;99.90
33803;DHT22;20110;53.120;5.786;2022-08-18T13:59:21;24.10;99.90
33803;DHT22;20110;53.120;5.786;2022-08-18T14:01:48;23.90;99.90
33803;DHT22;20110;53.120;5.786;2022-08-18T14:04:16;23.90;99.90
33803;DHT22;20110;53.120;5.786;2022-08-18T14:06:43;23.70;99.90
33803;DHT22;20110;53.120;5.786;2022-08-18T14:09:09;23.80;99.90
33803;DHT22;20110;53.120;5.786;2022-08-18T14:11:36;23.70;99.90
33803;DHT22;20110;53.120;5.786;2022-08-18T14:14:03;23.90;99.90
33803;DHT22;20110;53.120;5.786;2022-08-18T14:16:31;24.10;99.90
33803;DHT22;20110;53.120;5.786;2022-08-18T14:18:57;24.30;99.90
33803;DHT22;20110;53.120;5.786;2022-08-18T14:21:44;24.50;99.90
33803;DHT22;20110;53.120;5.786;2022-08-18T14:24:34;24.60;99.90
33803;DHT22;20110;53.120;5.786;2022-08-18T14:27:34;24.70;99.90
33803;DHT22;20110;53.120;5.786;2022-08-18T14:30:08;24.60;99.90
33803;DHT22;20110;53.120;5.786;2022-08-18T14:32:35;24.40;99.90
33803;DHT22;20110;53.120;5.786;2022-08-18T14:35:04;24.20;99.90
33803;DHT22;20110;53.120;5.786;2022-08-18T14:37:32;24.00;99.90
33803;DHT22;20110;53.120;5.786;2022-08-18T14:40:01;23.70;99.90
33803;DHT22;20110;53.120;5.786;2022-08-18T14:42:27;23.70;99.90
33803;DHT22;20110;53.120;5.786;2022-08-18T14:44:53;23.50;99.90
33803;DHT22;20110;53.120;5.786;2022-08-18T14:47:20;23.40;99.90
33803;DHT22;20110;53.120;5.786;2022-08-18T14:49:45;23.20;99.90
33803;DHT22;20110;53.120;5.786;2022-08-18T14:52:12;23.10;99.90
33803;DHT22;20110;53.120;5.786;2022-08-18T14:54:38;23.20;99.90
33803;DHT22;20110;53.120;5.786;2022-08-18T14:57:05;23.10;99.90
33803;DHT22;20110;53.120;5.786;2022-08-18T14:59:36;23.20;99.90
33803;DHT22;20110;53.120;5.786;2022-08-18T15:02:03;23.20;99.90
33803;DHT22;20110;53.120;5.786;2022-08-18T15:04:37;23.20;99.90
33803;DHT22;20110;53.120;5.786;2022-08-18T15:07:03;23.30;99.90
33803;DHT22;20110;53.120;5.786;2022-08-18T15:09:29;23.20;99.90
33803;DHT22;20110;53.120;5.786;2022-08-18T15:11:57;23.20;99.90
33803;DHT22;20110;53.120;5.786;2022-08-18T15:14:29;23.20;99.90
33803;DHT22;20110;53.120;5.786;2022-08-18T15:16:57;23.40;99.90
33803;DHT22;20110;53.120;5.786;2022-08-18T15:19:24;23.60;99.90
33803;DHT22;20110;53.120;5.786;2022-08-18T15:21:50;23.70;99.90
33803;DHT22;20110;53.120;5.786;2022-08-18T15:24:38;23.50;99.90
33803;DHT22;20110;53.120;5.786;2022-08-18T15:27:33;23.20;99.90
33803;DHT22;20110;53.120;5.786;2022-08-18T15:30:06;23.20;99.90
33803;DHT22;20110;53.120;5.786;2022-08-18T15:32:35;23.20;99.90
33803;DHT22;20110;53.120;5.786;2022-08-18T15:35:03;23.20;99.90
33803;DHT22;20110;53.120;5.786;2022-08-18T15:37:33;23.20;99.90
33803;DHT22;20110;53.120;5.786;2022-08-18T15:40:08;23.10;99.90
33803;DHT22;20110;53.120;5.786;2022-08-18T15:42:45;23.00;99.90
33803;DHT22;20110;53.120;5.786;2022-08-18T15:45:18;23.10;99.90
33803;DHT22;20110;53.120;5.786;2022-08-18T15:47:46;23.20;99.90
33803;DHT22;20110;53.120;5.786;2022-08-18T15:50:13;23.30;99.90
33803;DHT22;20110;53.120;5.786;2022-08-18T15:52:54;23.40;99.90
33803;DHT22;20110;53.120;5.786;2022-08-18T15:55:23;23.30;99.90
33803;DHT22;20110;53.120;5.786;2022-08-18T15:57:51;23.40;99.90
33803;DHT22;20110;53.120;5.786;2022-08-18T16:00:18;23.40;99.90
33803;DHT22;20110;53.120;5.786;2022-08-18T16:03:05;23.40;99.90
33803;DHT22;20110;53.120;5.786;2022-08-18T16:05:35;23.30;99.90
33803;DHT22;20110;53.120;5.786;2022-08-18T16:08:06;23.40;99.90
33803;DHT22;20110;53.120;5.786;2022-08-18T16:10:36;23.30;99.90
33803;DHT22;20110;53.120;5.786;2022-08-18T16:13:05;23.20;99.90
33803;DHT22;20110;53.120;5.786;2022-08-18T16:15:39;23.10;99.90
33803;DHT22;20110;53.120;5.786;2022-08-18T16:18:07;23.00;99.90
33803;DHT22;20110;53.120;5.786;2022-08-18T16:20:35;22.90;99.90
33803;DHT22;20110;53.120;5.786;2022-08-18T16:23:02;22.80;99.90
33803;DHT22;20110;53.120;5.786;2022-08-18T16:25:30;22.80;99.90
33803;DHT22;20110;53.120;5.786;2022-08-18T16:27:58;22.60;99.90
33803;DHT22;20110;53.120;5.786;2022-08-18T16:30:26;22.60;99.90
33803;DHT22;20110;53.120;5.786;2022-08-18T16:32:53;22.80;99.90
33803;DHT22;20110;53.120;5.786;2022-08-18T16:35:20;23.00;99.90
33803;DHT22;20110;53.120;5.786;2022-08-18T16:37:47;23.10;99.90
33803;DHT22;20110;53.120;5.786;2022-08-18T16:40:16;23.20;99.90
33803;DHT22;20110;53.120;5.786;2022-08-18T16:42:43;23.30;99.90
33803;DHT22;20110;53.120;5.786;2022-08-18T16:45:10;23.40;99.90
33803;DHT22;20110;53.120;5.786;2022-08-18T16:47:36;23.20;99.90
33803;DHT22;20110;53.120;5.786;2022-08-18T16:50:05;23.00;99.90
33803;DHT22;20110;53.120;5.786;2022-08-18T16:52:35;22.80;99.90
33803;DHT22;20110;53.120;5.786;2022-08-18T16:55:05;22.60;99.90
33803;DHT22;20110;53.120;5.786;2022-08-18T16:57:31;22.40;99.90
33803;DHT22;20110;53.120;5.786;2022-08-18T17:00:16;22.20;99.90
33803;DHT22;20110;53.120;5.786;2022-08-18T17:03:05;22.00;99.90
33803;DHT22;20110;53.120;5.786;2022-08-18T17:06:01;21.70;99.90
33803;DHT22;20110;53.120;5.786;2022-08-18T17:08:29;21.40;99.90
33803;DHT22;20110;53.120;5.786;2022-08-18T17:10:59;21.30;99.90
33803;DHT22;20110;53.120;5.786;2022-08-18T17:13:29;21.20;99.90
33803;DHT22;20110;53.120;5.786;2022-08-18T17:15:55;21.20;99.90
33803;DHT22;20110;53.120;5.786;2022-08-18T17:18:22;21.00;99.90
33803;DHT22;20110;53.120;5.786;2022-08-18T17:20:49;20.90;99.90
33803;DHT22;20110;53.120;5.786;2022-08-18T17:23:16;20.80;99.90
33803;DHT22;20110;53.120;5.786;2022-08-18T17:25:42;20.50;99.90
33803;DHT22;20110;53.120;5.786;2022-08-18T17:28:12;20.40;99.90
33803;DHT22;20110;53.120;5.786;2022-08-18T17:30:45;20.20;99.90
33803;DHT22;20110;53.120;5.786;2022-08-18T17:33:30;20.00;99.90
33803;DHT22;20110;53.120;5.786;2022-08-18T17:36:02;19.90;99.90
33803;DHT22;20110;53.120;5.786;2022-08-18T17:38:43;19.80;99.90
33803;DHT22;20110;53.120;5.786;2022-08-18T17:41:23;19.60;99.90
33803;DHT22;20110;53.120;5.786;2022-08-18T17:43:50;19.50;99.90
33803;DHT22;20110;53.120;5.786;2022-08-18T17:46:26;19.30;99.90
33803;DHT22;20110;53.120;5.786;2022-08-18T17:49:02;19.30;99.90
33803;DHT22;20110;53.120;5.786;2022-08-18T17:51:47;19.30;99.90
33803;DHT22;20110;53.120;5.786;2022-08-18T17:54:36;19.20;99.90
33803;DHT22;20110;53.120;5.786;2022-08-18T17:57:09;19.10;99.90
33803;DHT22;20110;53.120;5.786;2022-08-18T17:59:45;19.00;99.90
33803;DHT22;20110;53.120;5.786;2022-08-18T18:02:28;19.10;99.90
33803;DHT22;20110;53.120;5.786;2022-08-18T18:05:02;19.00;99.90
33803;DHT22;20110;53.120;5.786;2022-08-18T18:07:52;19.00;99.90
33803;DHT22;20110;53.120;5.786;2022-08-18T18:10:32;18.80;99.90
33803;DHT22;20110;53.120;5.786;2022-08-18T18:18:57;18.50;99.90
33803;DHT22;20110;53.120;5.786;2022-08-18T18:21:29;18.40;99.90
33803;DHT22;20110;53.120;5.786;2022-08-18T18:26:35;18.10;99.90
33803;DHT22;20110;53.120;5.786;2022-08-18T18:31:46;18.00;99.90
33803;DHT22;20110;53.120;5.786;2022-08-18T18:34:41;17.90;99.90
33803;DHT22;20110;53.120;5.786;2022-08-18T18:37:29;17.70;99.90